createdAt,value
2023-04-17T00:00:02.004Z,42.00
2023-04-17T00:01:02.022Z,40.80
2023-04-17T00:02:02.134Z,40.80
2023-04-17T00:03:02.221Z,40.10
2023-04-17T00:04:02.206Z,41.80
2023-04-17T00:05:02.064Z,41.40
2023-04-17T00:06:02.006Z,40.70
2023-04-17T00:07:02.020Z,42.50
2023-04-17T00:08:01.978Z,40.40
2023-04-17T00:09:01.994Z,41.10
2023-04-17T00:10:01.986Z,41.60
2023-04-17T00:11:07.595Z,41.00
2023-04-17T00:12:01.975Z,40.60
2023-04-17T00:13:01.959Z,41.50
2023-04-17T00:14:01.954Z,40.80
2023-04-17T00:15:01.946Z,41.10
2023-04-17T00:16:02.051Z,42.80
2023-04-17T00:17:01.990Z,40.20
2023-04-17T00:18:01.979Z,41.00
2023-04-17T00:19:01.939Z,41.70
2023-04-17T00:20:01.992Z,41.40
2023-04-17T00:21:01.922Z,41.20
2023-04-17T00:22:01.916Z,40.90
2023-04-17T00:23:02.228Z,42.30
2023-04-17T00:24:01.908Z,41.20
2023-04-17T00:25:01.908Z,42.60
2023-04-17T00:26:01.903Z,42.10
2023-04-17T00:27:01.915Z,41.50
2023-04-17T00:28:01.936Z,41.90
2023-04-17T00:29:01.884Z,42.00
2023-04-17T00:30:01.885Z,42.00
2023-04-17T00:31:01.884Z,43.10
2023-04-17T00:32:02.009Z,43.30
2023-04-17T00:33:02.036Z,43.00
2023-04-17T00:34:01.891Z,42.30
2023-04-17T00:35:01.875Z,42.60
2023-04-17T00:36:01.873Z,43.00
2023-04-17T00:37:01.862Z,42.40
2023-04-17T00:38:01.908Z,43.50
2023-04-17T00:39:01.849Z,42.90
2023-04-17T00:40:01.885Z,42.90
2023-04-17T00:41:01.840Z,43.80
2023-04-17T00:42:01.851Z,43.70
2023-04-17T00:43:01.948Z,43.20
2023-04-17T00:44:01.857Z,43.00
2023-04-17T00:45:01.926Z,42.50
2023-04-17T00:46:01.844Z,43.70
2023-04-17T00:47:01.835Z,42.90
2023-04-17T00:48:01.917Z,43.90
2023-04-17T00:49:01.811Z,44.90
2023-04-17T00:50:01.803Z,44.00
2023-04-17T00:51:01.839Z,44.00
2023-04-17T00:52:01.813Z,44.40
2023-04-17T00:53:01.792Z,44.20
2023-04-17T00:54:01.790Z,44.10
2023-04-17T00:55:01.782Z,44.50
2023-04-17T00:56:01.785Z,44.90
2023-04-17T00:57:01.775Z,44.80
2023-04-17T00:58:01.832Z,44.60
2023-04-17T00:59:01.791Z,45.40
2023-04-17T01:00:01.784Z,46.20
2023-04-17T01:01:01.819Z,45.10
2023-04-17T01:02:01.838Z,45.10
2023-04-17T01:03:02.046Z,45.20
2023-04-17T01:04:01.951Z,45.70
2023-04-17T01:05:01.833Z,44.90
2023-04-17T01:06:01.769Z,46.40
2023-04-17T01:07:01.737Z,45.70
2023-04-17T01:08:01.728Z,46.50
2023-04-17T01:09:01.732Z,46.30
2023-04-17T01:10:01.750Z,46.00
2023-04-17T01:11:01.723Z,47.40
2023-04-17T01:12:01.715Z,46.80
2023-04-17T01:13:01.713Z,47.40
2023-04-17T01:14:01.705Z,48.20
2023-04-17T01:15:01.718Z,47.70
2023-04-17T01:16:01.703Z,47.00
2023-04-17T01:17:01.782Z,47.60
2023-04-17T01:18:01.744Z,48.70
2023-04-17T01:19:01.689Z,49.10
2023-04-17T01:20:01.719Z,49.10
2023-04-17T01:21:01.678Z,48.60
2023-04-17T01:22:01.674Z,49.00
2023-04-17T01:23:01.712Z,50.90
2023-04-17T01:24:01.682Z,49.70
2023-04-17T01:25:01.660Z,49.80
2023-04-17T01:26:01.658Z,49.10
2023-04-17T01:27:01.665Z,50.80
2023-04-17T01:28:01.997Z,50.40
2023-04-17T01:29:01.670Z,51.50
2023-04-17T01:30:01.783Z,50.80
2023-04-17T01:31:01.759Z,51.70
2023-04-17T01:32:01.635Z,52.30
2023-04-17T01:33:01.660Z,50.90
2023-04-17T01:34:01.628Z,53.20
2023-04-17T01:35:01.614Z,52.60
2023-04-17T01:36:01.622Z,53.10
2023-04-17T01:37:01.610Z,53.00
2023-04-17T01:38:01.611Z,52.90
2023-04-17T01:39:01.606Z,53.90
2023-04-17T01:40:01.614Z,52.90
2023-04-17T01:41:01.601Z,52.30
2023-04-17T01:42:01.594Z,51.00
2023-04-17T01:43:01.586Z,53.60
2023-04-17T01:44:01.622Z,53.00
2023-04-17T01:45:01.577Z,53.20
2023-04-17T01:46:01.587Z,53.10
2023-04-17T01:47:01.598Z,53.50
2023-04-17T01:48:01.589Z,51.70
2023-04-17T01:49:01.575Z,53.00
2023-04-17T01:50:01.562Z,53.20
2023-04-17T01:51:01.553Z,53.00
2023-04-17T01:52:01.560Z,53.90
2023-04-17T01:53:01.666Z,54.90
2023-04-17T01:54:01.552Z,54.40
2023-04-17T01:55:01.537Z,54.10
2023-04-17T01:56:01.545Z,53.20
2023-04-17T01:57:01.535Z,53.70
2023-04-17T01:58:01.529Z,53.80
2023-04-17T01:59:01.522Z,53.20
2023-04-17T02:00:01.568Z,52.50
2023-04-17T02:01:01.559Z,53.50
2023-04-17T02:02:01.583Z,54.60
2023-04-17T02:03:01.627Z,53.50
2023-04-17T02:04:01.648Z,51.30
2023-04-17T02:05:01.495Z,53.10
2023-04-17T02:06:01.491Z,52.50
2023-04-17T02:07:01.486Z,52.60
2023-04-17T02:08:01.490Z,52.80
2023-04-17T02:09:01.478Z,52.60
2023-04-17T02:10:01.551Z,51.90
2023-04-17T02:11:01.470Z,52.70
2023-04-17T02:12:01.472Z,51.80
2023-04-17T02:13:01.491Z,53.20
2023-04-17T02:14:01.459Z,52.10
2023-04-17T02:15:01.540Z,52.60
2023-04-17T02:16:01.492Z,51.50
2023-04-17T02:17:01.465Z,52.80
2023-04-17T02:18:01.459Z,51.30
2023-04-17T02:19:01.452Z,53.10
2023-04-17T02:20:01.496Z,52.10
2023-04-17T02:21:01.444Z,51.30
2023-04-17T02:22:01.489Z,51.20
2023-04-17T02:23:01.420Z,51.20
2023-04-17T02:24:01.421Z,50.90
2023-04-17T02:25:01.412Z,51.30
2023-04-17T02:26:01.469Z,51.20
2023-04-17T02:27:01.409Z,52.80
2023-04-17T02:28:01.741Z,53.40
2023-04-17T02:29:01.502Z,50.70
2023-04-17T02:30:01.403Z,51.20
2023-04-17T02:31:01.432Z,52.60
2023-04-17T02:32:01.412Z,50.80
2023-04-17T02:33:01.433Z,50.40
2023-04-17T02:34:01.377Z,51.20
2023-04-17T02:35:01.395Z,51.80
2023-04-17T02:36:01.375Z,51.40
2023-04-17T02:37:01.366Z,51.60
2023-04-17T02:38:01.360Z,50.90
2023-04-17T02:39:01.358Z,51.00
2023-04-17T02:40:01.405Z,51.30
2023-04-17T02:41:01.350Z,51.80
2023-04-17T02:42:01.351Z,51.80
2023-04-17T02:43:01.431Z,52.00
2023-04-17T02:44:01.342Z,50.40
2023-04-17T02:45:01.334Z,51.60
2023-04-17T02:46:01.373Z,51.50
2023-04-17T02:47:01.412Z,50.40
2023-04-17T02:48:01.408Z,50.50
2023-04-17T02:49:01.357Z,49.40
2023-04-17T02:50:01.335Z,50.40
2023-04-17T02:51:01.339Z,51.00
2023-04-17T02:52:01.313Z,51.00
2023-04-17T02:53:01.305Z,50.50
2023-04-17T02:54:01.301Z,52.00
2023-04-17T02:55:01.297Z,50.30
2023-04-17T02:56:01.310Z,50.10
2023-04-17T02:57:01.298Z,50.00
2023-04-17T02:58:01.384Z,51.60
2023-04-17T02:59:01.287Z,50.40
2023-04-17T03:00:01.283Z,49.80
2023-04-17T03:01:01.320Z,50.80
2023-04-17T03:02:01.304Z,49.10
2023-04-17T03:03:01.485Z,49.90
2023-04-17T03:04:01.622Z,49.20
2023-04-17T03:05:01.259Z,50.70
2023-04-17T03:06:01.253Z,50.00
2023-04-17T03:07:01.273Z,50.80
2023-04-17T03:08:01.257Z,49.60
2023-04-17T03:09:01.238Z,49.60
2023-04-17T03:10:01.244Z,49.90
2023-04-17T03:11:01.231Z,48.60
2023-04-17T03:12:01.227Z,49.80
2023-04-17T03:13:01.223Z,49.50
2023-04-17T03:14:01.224Z,48.40
2023-04-17T03:15:01.220Z,49.50
2023-04-17T03:16:01.297Z,48.50
2023-04-17T03:17:01.207Z,49.20
2023-04-17T03:18:01.246Z,48.90
2023-04-17T03:19:01.203Z,50.50
2023-04-17T03:20:01.198Z,50.20
2023-04-17T03:21:01.194Z,49.80
2023-04-17T03:22:01.196Z,49.20
2023-04-17T03:23:01.210Z,48.50
2023-04-17T03:24:01.180Z,48.80
2023-04-17T03:25:01.191Z,48.90
2023-04-17T03:26:01.168Z,48.80
2023-04-17T03:27:01.176Z,48.20
2023-04-17T03:28:01.621Z,48.40
2023-04-17T03:29:01.166Z,48.40
2023-04-17T03:30:01.154Z,49.10
2023-04-17T03:31:01.156Z,49.10
2023-04-17T03:32:01.196Z,49.20
2023-04-17T03:33:01.211Z,49.50
2023-04-17T03:34:01.139Z,50.20
2023-04-17T03:35:01.138Z,47.60
2023-04-17T03:36:01.134Z,48.50
2023-04-17T03:37:01.132Z,49.80
2023-04-17T03:38:01.121Z,48.60
2023-04-17T03:39:01.140Z,48.80
2023-04-17T03:40:01.126Z,50.40
2023-04-17T03:41:01.109Z,49.30
2023-04-17T03:42:01.123Z,49.90
2023-04-17T03:43:01.124Z,51.00
2023-04-17T03:44:01.103Z,49.20
2023-04-17T03:45:01.102Z,50.40
2023-04-17T03:46:01.132Z,50.10
2023-04-17T03:47:01.105Z,51.30
2023-04-17T03:48:01.179Z,50.80
2023-04-17T03:49:01.078Z,51.30
2023-04-17T03:50:01.076Z,51.10
2023-04-17T03:51:01.076Z,50.60
2023-04-17T03:52:01.070Z,51.30
2023-04-17T03:53:01.061Z,49.90
2023-04-17T03:54:01.054Z,47.20
2023-04-17T03:55:01.074Z,49.50
2023-04-17T03:56:01.050Z,48.40
2023-04-17T03:57:01.047Z,50.50
2023-04-17T03:58:01.036Z,50.10
2023-04-17T03:59:01.036Z,50.70
2023-04-17T04:00:01.048Z,50.30
2023-04-17T04:01:01.031Z,48.90
2023-04-17T04:02:01.131Z,50.20
2023-04-17T04:03:01.230Z,49.90
2023-04-17T04:04:01.218Z,48.80
2023-04-17T04:05:01.093Z,50.00
2023-04-17T04:06:01.011Z,50.10
2023-04-17T04:07:00.996Z,49.80
2023-04-17T04:08:00.992Z,48.10
2023-04-17T04:09:00.987Z,46.30
2023-04-17T04:10:01.010Z,46.10
2023-04-17T04:11:01.011Z,46.10
2023-04-17T04:12:00.976Z,45.10
2023-04-17T04:13:00.974Z,44.10
2023-04-17T04:14:00.975Z,42.30
2023-04-17T04:15:00.964Z,41.00
2023-04-17T04:16:01.171Z,41.10
2023-04-17T04:17:00.958Z,40.70
2023-04-17T04:18:01.009Z,41.00
2023-04-17T04:19:00.943Z,41.20
2023-04-17T04:20:00.954Z,41.20
2023-04-17T04:21:00.935Z,42.10
2023-04-17T04:22:00.929Z,40.00
2023-04-17T04:23:00.936Z,39.00
2023-04-17T04:24:00.923Z,39.50
2023-04-17T04:25:00.920Z,40.80
2023-04-17T04:26:00.909Z,39.30
2023-04-17T04:27:00.931Z,39.00
2023-04-17T04:28:00.915Z,40.50
2023-04-17T04:29:01.151Z,39.10
2023-04-17T04:30:00.898Z,39.10
2023-04-17T04:31:00.920Z,39.00
2023-04-17T04:32:00.888Z,38.30
2023-04-17T04:33:00.931Z,37.90
2023-04-17T04:34:00.887Z,37.90
2023-04-17T04:35:00.937Z,36.60
2023-04-17T04:36:00.935Z,38.20
2023-04-17T04:37:00.874Z,38.80
2023-04-17T04:38:00.873Z,38.80
2023-04-17T04:39:00.895Z,40.30
2023-04-17T04:40:00.857Z,39.40
2023-04-17T04:41:00.855Z,38.20
2023-04-17T04:42:00.856Z,38.80
2023-04-17T04:43:00.865Z,38.50
2023-04-17T04:44:00.845Z,37.90
2023-04-17T04:45:00.860Z,37.50
2023-04-17T04:46:00.849Z,36.90
2023-04-17T04:47:00.845Z,36.30
2023-04-17T04:48:00.848Z,35.70
2023-04-17T04:49:00.820Z,37.70
2023-04-17T04:50:00.820Z,37.10
2023-04-17T04:51:00.816Z,36.30
2023-04-17T04:52:00.802Z,37.00
2023-04-17T04:53:00.809Z,36.20
2023-04-17T04:54:00.802Z,36.10
2023-04-17T04:55:00.808Z,36.20
2023-04-17T04:56:00.790Z,36.60
2023-04-17T04:57:00.784Z,36.30
2023-04-17T04:58:00.780Z,35.20
2023-04-17T04:59:00.797Z,36.10
2023-04-17T05:00:00.806Z,36.80
2023-04-17T05:01:00.826Z,35.70
2023-04-17T05:02:00.894Z,36.50
2023-04-17T05:03:01.168Z,36.40
2023-04-17T05:04:00.950Z,36.70
2023-04-17T05:05:00.922Z,36.60
2023-04-17T05:06:00.758Z,37.00
2023-04-17T05:07:00.756Z,36.60
2023-04-17T05:08:00.745Z,36.30
2023-04-17T05:09:00.737Z,37.70
2023-04-17T05:10:00.728Z,36.70
2023-04-17T05:11:00.730Z,36.60
2023-04-17T05:12:00.722Z,36.50
2023-04-17T05:13:00.723Z,36.50
2023-04-17T05:14:00.713Z,36.30
2023-04-17T05:15:00.731Z,36.60
2023-04-17T05:16:01.856Z,36.80
2023-04-17T05:17:00.732Z,36.60
2023-04-17T05:18:00.709Z,37.20
2023-04-17T05:19:00.696Z,36.80
2023-04-17T05:20:00.696Z,37.40
2023-04-17T05:21:00.684Z,37.10
2023-04-17T05:22:00.680Z,36.20
2023-04-17T05:23:00.675Z,37.00
2023-04-17T05:24:00.673Z,37.20
2023-04-17T05:25:00.665Z,37.00
2023-04-17T05:26:00.660Z,37.70
2023-04-17T05:27:00.658Z,37.40
2023-04-17T05:28:00.656Z,34.90
2023-04-17T05:29:00.654Z,36.00
2023-04-17T05:30:00.642Z,36.80
2023-04-17T05:31:00.761Z,36.90
2023-04-17T05:32:00.685Z,36.80
2023-04-17T05:33:00.698Z,38.00
2023-04-17T05:34:00.883Z,36.10
2023-04-17T05:35:00.620Z,35.40
2023-04-17T05:36:00.618Z,36.90
2023-04-17T05:37:00.615Z,37.80
2023-04-17T05:38:00.603Z,37.50
2023-04-17T05:39:00.607Z,38.10
2023-04-17T05:40:00.648Z,37.40
2023-04-17T05:41:00.592Z,38.00
2023-04-17T05:42:00.619Z,37.70
2023-04-17T05:43:00.583Z,37.20
2023-04-17T05:44:00.587Z,36.40
2023-04-17T05:45:00.596Z,37.50
2023-04-17T05:46:00.624Z,37.30
2023-04-17T05:47:00.596Z,37.90
2023-04-17T05:48:00.593Z,37.30
2023-04-17T05:49:00.553Z,37.20
2023-04-17T05:50:00.556Z,37.10
2023-04-17T05:51:00.546Z,37.50
2023-04-17T05:52:00.542Z,36.50
2023-04-17T05:53:00.534Z,36.20
2023-04-17T05:54:00.532Z,36.60
2023-04-17T05:55:00.547Z,37.00
2023-04-17T05:56:00.521Z,36.90
2023-04-17T05:57:00.521Z,36.30
2023-04-17T05:58:03.829Z,37.30
2023-04-17T05:59:00.525Z,36.40
2023-04-17T06:00:00.518Z,37.60
2023-04-17T06:01:00.502Z,37.00
2023-04-17T06:02:00.732Z,37.50
2023-04-17T06:03:00.802Z,37.10
2023-04-17T06:04:02.202Z,36.10
2023-04-17T06:05:00.865Z,36.00
2023-04-17T06:06:00.718Z,36.10
2023-04-17T06:07:00.474Z,37.40
2023-04-17T06:08:00.466Z,35.10
2023-04-17T06:09:00.467Z,36.40
2023-04-17T06:10:00.461Z,36.00
2023-04-17T06:11:00.459Z,35.60
2023-04-17T06:12:00.454Z,37.10
2023-04-17T06:13:00.467Z,35.60
2023-04-17T06:14:00.447Z,35.50
2023-04-17T06:15:00.454Z,35.30
2023-04-17T06:16:00.445Z,36.40
2023-04-17T06:17:00.462Z,35.40
2023-04-17T06:18:00.475Z,35.70
2023-04-17T06:19:00.447Z,35.50
2023-04-17T06:20:00.423Z,35.00
2023-04-17T06:21:00.424Z,35.70
2023-04-17T06:22:00.411Z,34.60
2023-04-17T06:23:00.405Z,35.60
2023-04-17T06:24:00.407Z,35.70
2023-04-17T06:25:00.407Z,35.00
2023-04-17T06:26:00.390Z,35.50
2023-04-17T06:27:00.389Z,34.10
2023-04-17T06:28:00.423Z,35.20
2023-04-17T06:29:00.379Z,34.60
2023-04-17T06:30:00.381Z,34.70
2023-04-17T06:31:00.425Z,34.60
2023-04-17T06:32:00.372Z,35.90
2023-04-17T06:33:00.390Z,34.40
2023-04-17T06:34:00.608Z,33.90
2023-04-17T06:35:00.391Z,34.30
2023-04-17T06:36:00.347Z,34.30
2023-04-17T06:37:00.348Z,34.40
2023-04-17T06:38:00.340Z,34.70
2023-04-17T06:39:00.350Z,34.90
2023-04-17T06:40:00.328Z,34.50
2023-04-17T06:41:00.330Z,34.70
2023-04-17T06:42:00.330Z,33.10
2023-04-17T06:43:00.317Z,35.00
2023-04-17T06:44:00.318Z,34.80
2023-04-17T06:45:00.323Z,34.30
2023-04-17T06:46:00.370Z,34.70
2023-04-17T06:47:02.402Z,34.00
2023-04-17T06:48:00.433Z,35.10
2023-04-17T06:49:00.299Z,34.20
2023-04-17T06:50:00.288Z,35.20
2023-04-17T06:51:00.306Z,34.60
2023-04-17T06:52:00.288Z,33.90
2023-04-17T06:53:00.275Z,33.90
2023-04-17T06:54:00.274Z,34.10
2023-04-17T06:55:00.268Z,34.60
2023-04-17T06:56:00.265Z,34.80
2023-04-17T06:57:00.260Z,34.70
2023-04-17T06:58:00.257Z,34.80
2023-04-17T06:59:01.817Z,34.50
2023-04-17T07:00:00.269Z,34.80
2023-04-17T07:01:00.242Z,35.10
2023-04-17T07:02:00.388Z,35.60
2023-04-17T07:03:00.345Z,35.40
2023-04-17T07:04:00.470Z,34.00
2023-04-17T07:05:00.267Z,34.40
2023-04-17T07:06:00.248Z,34.60
2023-04-17T07:07:00.245Z,34.50
2023-04-17T07:08:00.217Z,34.90
2023-04-17T07:09:00.211Z,34.50
2023-04-17T07:10:00.217Z,35.20
2023-04-17T07:11:00.202Z,34.80
2023-04-17T07:12:00.195Z,34.10
2023-04-17T07:13:00.200Z,34.20
2023-04-17T07:14:00.190Z,34.00
2023-04-17T07:15:00.180Z,33.90
2023-04-17T07:16:00.303Z,34.80
2023-04-17T07:17:00.182Z,34.00
2023-04-17T07:18:00.299Z,35.70
2023-04-17T07:19:00.167Z,34.20
2023-04-17T07:20:00.230Z,34.30
2023-04-17T07:21:00.202Z,34.80
2023-04-17T07:22:00.200Z,34.00
2023-04-17T07:23:00.167Z,34.00
2023-04-17T07:24:00.174Z,34.10
2023-04-17T07:25:00.166Z,34.10
2023-04-17T07:26:00.155Z,34.40
2023-04-17T07:27:00.312Z,34.00
2023-04-17T07:28:00.137Z,33.80
2023-04-17T07:29:00.153Z,34.20
2023-04-17T07:30:00.119Z,34.70
2023-04-17T07:31:00.174Z,35.30
2023-04-17T07:32:00.210Z,34.50
2023-04-17T07:33:00.158Z,35.70
2023-04-17T07:34:00.304Z,36.30
2023-04-17T07:35:00.139Z,36.30
2023-04-17T07:36:00.133Z,37.50
2023-04-17T07:37:00.097Z,37.10
2023-04-17T07:38:00.140Z,36.50
2023-04-17T07:39:00.217Z,37.30
2023-04-17T07:40:00.090Z,36.40
2023-04-17T07:41:00.102Z,36.20
2023-04-17T07:42:00.119Z,35.30
2023-04-17T07:43:00.069Z,35.40
2023-04-17T07:44:00.078Z,35.80
2023-04-17T07:45:00.054Z,35.70
2023-04-17T07:46:00.069Z,35.30
2023-04-17T07:47:00.065Z,34.90
2023-04-17T07:48:00.185Z,35.40
2023-04-17T07:49:00.041Z,36.00
2023-04-17T07:50:00.054Z,35.20
2023-04-17T07:51:00.043Z,35.90
2023-04-17T07:52:00.050Z,34.10
2023-04-17T07:53:00.024Z,36.30
2023-04-17T07:54:00.049Z,35.30
2023-04-17T07:55:00.042Z,35.30
2023-04-17T07:56:00.015Z,36.30
2023-04-17T07:57:00.023Z,35.30
2023-04-17T07:57:59.998Z,35.30
2023-04-17T07:59:00.029Z,35.80
2023-04-17T08:00:00.003Z,35.30
2023-04-17T08:00:59.998Z,35.60
2023-04-17T08:02:00.064Z,35.50
2023-04-17T08:03:00.216Z,35.80
2023-04-17T08:04:00.209Z,36.10
2023-04-17T08:05:00.051Z,36.10
2023-04-17T08:05:59.976Z,34.40
2023-04-17T08:06:59.963Z,35.90
2023-04-17T08:07:59.965Z,34.70
2023-04-17T08:09:00.018Z,35.10
2023-04-17T08:09:59.951Z,34.10
2023-04-17T08:10:59.964Z,34.90
2023-04-17T08:11:59.948Z,35.40
2023-04-17T08:12:59.942Z,35.30
2023-04-17T08:13:59.941Z,34.60
2023-04-17T08:14:59.938Z,33.60
2023-04-17T08:15:59.941Z,33.40
2023-04-17T08:16:59.950Z,34.20
2023-04-17T08:17:59.972Z,33.50
2023-04-17T08:18:59.916Z,33.60
2023-04-17T08:19:59.943Z,32.90
2023-04-17T08:20:59.916Z,32.60
2023-04-17T08:21:59.920Z,32.20
2023-04-17T08:22:59.902Z,33.10
2023-04-17T08:23:59.903Z,31.90
2023-04-17T08:24:59.893Z,32.50
2023-04-17T08:25:59.894Z,32.00
2023-04-17T08:26:59.919Z,31.70
2023-04-17T08:27:59.889Z,32.60
2023-04-17T08:28:59.879Z,31.70
2023-04-17T08:29:59.878Z,30.50
2023-04-17T08:30:59.903Z,30.30
2023-04-17T08:32:13.369Z,31.30
2023-04-17T08:32:59.920Z,30.30
2023-04-17T08:34:13.032Z,32.00
2023-04-17T08:34:59.861Z,31.30
2023-04-17T08:36:01.455Z,30.90
2023-04-17T08:36:59.850Z,30.60
2023-04-17T08:37:59.847Z,30.60
2023-04-17T08:39:00.196Z,30.60
2023-04-17T08:39:59.841Z,29.90
2023-04-17T08:40:59.836Z,30.20
2023-04-17T08:41:59.837Z,29.90
2023-04-17T08:42:59.952Z,30.70
2023-04-17T08:43:59.827Z,30.70
2023-04-17T08:44:59.822Z,30.30
2023-04-17T08:45:59.837Z,30.20
2023-04-17T08:46:59.823Z,31.10
2023-04-17T08:47:59.861Z,30.90
2023-04-17T08:48:59.807Z,30.90
2023-04-17T08:49:59.805Z,31.70
2023-04-17T08:50:59.799Z,31.50
2023-04-17T08:51:59.797Z,31.50
2023-04-17T08:52:59.795Z,30.70
2023-04-17T08:53:59.788Z,31.40
2023-04-17T08:54:59.785Z,30.40
2023-04-17T08:56:01.359Z,31.10
2023-04-17T08:56:59.783Z,30.70
2023-04-17T08:57:59.774Z,31.50
2023-04-17T08:58:59.790Z,30.70
2023-04-17T08:59:59.765Z,32.70
2023-04-17T09:00:59.758Z,31.90
2023-04-17T09:01:59.883Z,31.80
2023-04-17T09:02:59.886Z,31.70
2023-04-17T09:03:59.837Z,33.50
2023-04-17T09:04:59.963Z,33.20
2023-04-17T09:05:59.744Z,35.00
2023-04-17T09:06:59.739Z,35.90
2023-04-17T09:07:59.736Z,35.40
2023-04-17T09:08:59.736Z,35.90
2023-04-17T09:09:59.737Z,35.10
2023-04-17T09:10:59.721Z,35.40
2023-04-17T09:11:59.726Z,33.70
2023-04-17T09:12:59.723Z,34.60
2023-04-17T09:13:59.721Z,34.20
2023-04-17T09:14:59.746Z,34.60
2023-04-17T09:15:59.725Z,35.20
2023-04-17T09:16:59.703Z,35.50
2023-04-17T09:17:59.727Z,34.60
2023-04-17T09:18:59.699Z,35.50
2023-04-17T09:19:59.696Z,35.20
2023-04-17T09:20:59.696Z,33.90
2023-04-17T09:21:59.687Z,33.70
2023-04-17T09:22:59.697Z,33.70
2023-04-17T09:23:59.689Z,33.40
2023-04-17T09:24:59.673Z,34.90
2023-04-17T09:25:59.677Z,35.60
2023-04-17T09:26:59.670Z,35.50
2023-04-17T09:27:59.668Z,34.40
2023-04-17T09:28:59.660Z,33.30
2023-04-17T09:29:59.658Z,33.50
2023-04-17T09:30:59.701Z,33.10
2023-04-17T09:31:59.789Z,32.30
2023-04-17T09:32:59.708Z,33.30
2023-04-17T09:33:59.645Z,32.90
2023-04-17T09:34:59.651Z,33.50
2023-04-17T09:35:59.640Z,32.10
2023-04-17T09:36:59.635Z,32.70
2023-04-17T09:37:59.645Z,31.60
2023-04-17T09:38:59.636Z,30.30
2023-04-17T09:39:59.682Z,30.20
2023-04-17T09:40:59.633Z,29.90
2023-04-17T09:42:01.633Z,29.20
2023-04-17T09:42:59.618Z,27.90
2023-04-17T09:44:00.015Z,27.80
2023-04-17T09:44:59.608Z,28.00
2023-04-17T09:45:59.617Z,27.60
2023-04-17T09:46:59.676Z,28.90
2023-04-17T09:47:59.619Z,27.20
2023-04-17T09:48:59.596Z,27.60
2023-04-17T09:49:59.612Z,25.80
2023-04-17T09:50:59.587Z,25.70
2023-04-17T09:51:59.591Z,25.40
2023-04-17T09:52:59.584Z,24.90
2023-04-17T09:53:59.580Z,24.60
2023-04-17T09:54:59.585Z,22.70
2023-04-17T09:55:59.570Z,20.40
2023-04-17T09:56:59.587Z,21.70
2023-04-17T09:57:59.564Z,21.10
2023-04-17T09:58:59.590Z,21.00
2023-04-17T09:59:59.555Z,19.80
2023-04-17T10:00:59.577Z,19.00
2023-04-17T10:01:59.588Z,19.90
2023-04-17T10:02:59.774Z,18.90
2023-04-17T10:03:59.803Z,18.50
2023-04-17T10:04:59.539Z,19.20
2023-04-17T10:05:59.532Z,19.00
2023-04-17T10:06:59.530Z,19.40
2023-04-17T10:07:59.524Z,20.20
2023-04-17T10:08:59.517Z,19.70
2023-04-17T10:09:59.517Z,19.80
2023-04-17T10:10:59.520Z,19.90
2023-04-17T10:11:59.512Z,18.60
2023-04-17T10:12:59.505Z,20.90
2023-04-17T10:13:59.510Z,19.70
2023-04-17T10:14:59.500Z,18.90
2023-04-17T10:15:59.537Z,19.00
2023-04-17T10:16:59.494Z,18.80
2023-04-17T10:17:59.550Z,19.50
2023-04-17T10:18:59.506Z,19.40
2023-04-17T10:19:59.489Z,20.40
2023-04-17T10:20:59.480Z,21.00
2023-04-17T10:21:59.479Z,20.10
2023-04-17T10:22:59.473Z,19.20
2023-04-17T10:23:59.476Z,20.10
2023-04-17T10:24:59.511Z,20.50
2023-04-17T10:25:59.463Z,20.20
2023-04-17T10:26:59.461Z,19.70
2023-04-17T10:27:59.472Z,19.70
2023-04-17T10:28:59.456Z,19.00
2023-04-17T10:29:59.495Z,18.20
2023-04-17T10:30:59.459Z,18.80
2023-04-17T10:31:59.482Z,20.40
2023-04-17T10:32:59.470Z,21.50
2023-04-17T10:33:59.445Z,21.60
2023-04-17T10:34:59.461Z,21.90
2023-04-17T10:35:59.442Z,22.10
2023-04-17T10:36:59.430Z,21.40
2023-04-17T10:37:59.431Z,21.70
2023-04-17T10:38:59.433Z,23.10
2023-04-17T10:39:59.425Z,22.50
2023-04-17T10:41:00.117Z,21.80
2023-04-17T10:41:59.416Z,21.00
2023-04-17T10:42:59.412Z,21.10
2023-04-17T10:43:59.412Z,19.10
2023-04-17T10:44:59.412Z,17.20
2023-04-17T10:45:59.593Z,17.40
2023-04-17T10:46:59.412Z,16.30
2023-04-17T10:47:59.549Z,16.30
2023-04-17T10:48:59.436Z,16.70
2023-04-17T10:49:59.451Z,15.80
2023-04-17T10:50:59.442Z,16.10
2023-04-17T10:51:59.394Z,15.60
2023-04-17T10:52:59.394Z,16.10
2023-04-17T10:53:59.387Z,15.20
2023-04-17T10:54:59.372Z,14.20
2023-04-17T10:55:59.375Z,14.30
2023-04-17T10:56:59.381Z,15.60
2023-04-17T10:57:59.370Z,14.10
2023-04-17T10:58:59.395Z,14.70
2023-04-17T10:59:59.357Z,14.70
2023-04-17T11:00:59.435Z,13.90
2023-04-17T11:01:59.580Z,14.70
2023-04-17T11:02:59.396Z,14.10
2023-04-17T11:03:59.533Z,14.70
2023-04-17T11:04:59.468Z,14.00
2023-04-17T11:05:59.344Z,15.00
2023-04-17T11:06:59.379Z,15.30
2023-04-17T11:07:59.358Z,14.70
2023-04-17T11:08:59.332Z,14.70
2023-04-17T11:09:59.326Z,14.70
2023-04-17T11:10:59.322Z,14.50
2023-04-17T11:11:59.330Z,13.80
2023-04-17T11:12:59.324Z,13.90
2023-04-17T11:13:59.314Z,14.40
2023-04-17T11:14:59.314Z,14.90
2023-04-17T11:15:59.307Z,14.50
2023-04-17T11:16:59.359Z,14.40
2023-04-17T11:17:59.440Z,14.30
2023-04-17T11:18:59.299Z,14.30
2023-04-17T11:19:59.299Z,13.60
2023-04-17T11:20:59.294Z,13.20
2023-04-17T11:21:59.350Z,12.40
2023-04-17T11:22:59.383Z,12.80
2023-04-17T11:23:59.287Z,12.60
2023-04-17T11:24:59.290Z,13.00
2023-04-17T11:25:59.283Z,13.30
2023-04-17T11:26:59.275Z,13.50
2023-04-17T11:27:59.278Z,13.00
2023-04-17T11:28:59.268Z,13.80
2023-04-17T11:29:59.264Z,12.90
2023-04-17T11:30:59.286Z,14.50
2023-04-17T11:31:59.264Z,13.60
2023-04-17T11:32:59.286Z,13.80
2023-04-17T11:33:59.255Z,13.20
2023-04-17T11:34:59.251Z,13.30
2023-04-17T11:35:59.248Z,12.90
2023-04-17T11:36:59.251Z,13.10
2023-04-17T11:37:59.252Z,12.50
2023-04-17T11:38:59.292Z,12.70
2023-04-17T11:39:59.238Z,13.20
2023-04-17T11:40:59.236Z,12.40
2023-04-17T11:41:59.236Z,12.70
2023-04-17T11:42:59.228Z,12.90
2023-04-17T11:43:59.426Z,13.30
2023-04-17T11:44:59.220Z,13.20
2023-04-17T11:45:59.248Z,12.80
2023-04-17T11:46:59.342Z,12.60
2023-04-17T11:47:59.281Z,13.00
2023-04-17T11:48:59.223Z,12.90
2023-04-17T11:49:59.218Z,12.50
2023-04-17T11:50:59.223Z,12.10
2023-04-17T11:51:59.205Z,12.60
2023-04-17T11:52:59.201Z,11.60
2023-04-17T11:53:59.217Z,11.80
2023-04-17T11:54:59.237Z,12.20
2023-04-17T11:55:59.191Z,13.00
2023-04-17T11:56:59.189Z,12.00
2023-04-17T11:57:59.185Z,11.90
2023-04-17T11:58:59.277Z,11.50
2023-04-17T11:59:59.188Z,11.10
2023-04-17T12:00:59.184Z,11.00
2023-04-17T12:01:59.229Z,11.10
2023-04-17T12:02:59.247Z,11.90
2023-04-17T12:03:59.487Z,11.90
2023-04-17T12:04:59.447Z,12.00
2023-04-17T12:05:59.198Z,11.70
2023-04-17T12:06:59.824Z,11.80
2023-04-17T12:07:59.155Z,11.00
2023-04-17T12:08:59.158Z,10.40
2023-04-17T12:09:59.159Z,10.70
2023-04-17T12:10:59.178Z,10.00
2023-04-17T12:11:59.148Z,10.70
2023-04-17T12:12:59.145Z,10.70
2023-04-17T12:13:59.141Z,9.90
2023-04-17T12:14:59.161Z,9.60
2023-04-17T12:15:59.228Z,10.20
2023-04-17T12:16:59.148Z,9.60
2023-04-17T12:17:59.250Z,9.80
2023-04-17T12:18:59.135Z,9.30
2023-04-17T12:19:59.122Z,9.60
2023-04-17T12:20:59.140Z,9.50
2023-04-17T12:21:59.195Z,10.20
2023-04-17T12:22:59.117Z,10.80
2023-04-17T12:23:59.118Z,10.80
2023-04-17T12:24:59.111Z,10.40
2023-04-17T12:25:59.106Z,10.90
2023-04-17T12:26:59.137Z,11.00
2023-04-17T12:27:59.107Z,10.30
2023-04-17T12:28:59.099Z,10.60
2023-04-17T12:29:59.097Z,10.00
2023-04-17T12:30:59.094Z,9.90
2023-04-17T12:31:59.159Z,9.50
2023-04-17T12:32:59.163Z,9.40
2023-04-17T12:33:59.089Z,9.60
2023-04-17T12:34:59.085Z,9.20
2023-04-17T12:35:59.148Z,9.80
2023-04-17T12:36:59.077Z,9.80
2023-04-17T12:37:59.082Z,9.40
2023-04-17T12:38:59.073Z,9.30
2023-04-17T12:39:59.068Z,9.80
2023-04-17T12:40:59.070Z,9.60
2023-04-17T12:41:59.061Z,9.30
2023-04-17T12:42:59.099Z,9.50
2023-04-17T12:43:59.058Z,10.30
2023-04-17T12:44:59.559Z,9.50
2023-04-17T12:45:59.068Z,9.50
2023-04-17T12:46:59.052Z,10.10
2023-04-17T12:47:59.096Z,10.00
2023-04-17T12:48:59.056Z,10.70
2023-04-17T12:49:59.041Z,10.40
2023-04-17T12:50:59.038Z,10.40
2023-04-17T12:52:01.654Z,10.80
2023-04-17T12:52:59.032Z,10.60